sensor_id;sensor_type;location;lat;lon;timestamp;P1;durP1;ratioP1;P2;durP2;ratioP2
61206;SDS011;47070;49.212;8.084;2022-09-27T00:01:38;0.50;;;0.50;;
61206;SDS011;47070;49.212;8.084;2022-09-27T00:05:38;0.50;;;0.50;;
61206;SDS011;47070;49.212;8.084;2022-09-27T00:09:40;0.57;;;0.57;;
61206;SDS011;47070;49.212;8.084;2022-09-27T00:13:40;1.00;;;0.50;;
61206;SDS011;47070;49.212;8.084;2022-09-27T00:17:41;0.50;;;0.50;;
61206;SDS011;47070;49.212;8.084;2022-09-27T00:21:43;0.57;;;0.57;;
61206;SDS011;47070;49.212;8.084;2022-09-27T00:25:56;1.27;;;0.60;;
61206;SDS011;47070;49.212;8.084;2022-09-27T00:29:58;2.92;;;0.50;;
61206;SDS011;47070;49.212;8.084;2022-09-27T00:33:59;2.28;;;0.55;;
61206;SDS011;47070;49.212;8.084;2022-09-27T00:38:01;0.50;;;0.50;;
61206;SDS011;47070;49.212;8.084;2022-09-27T00:42:02;0.47;;;0.40;;
61206;SDS011;47070;49.212;8.084;2022-09-27T00:46:02;0.47;;;0.47;;
61206;SDS011;47070;49.212;8.084;2022-09-27T00:54:20;0.55;;;0.55;;
61206;SDS011;47070;49.212;8.084;2022-09-27T00:58:29;2.58;;;0.80;;
61206;SDS011;47070;49.212;8.084;2022-09-27T01:02:35;3.13;;;0.98;;
61206;SDS011;47070;49.212;8.084;2022-09-27T01:06:37;1.45;;;0.70;;
61206;SDS011;47070;49.212;8.084;2022-09-27T01:10:44;0.85;;;0.85;;
61206;SDS011;47070;49.212;8.084;2022-09-27T01:32:17;1.27;;;0.93;;
61206;SDS011;47070;49.212;8.084;2022-09-27T01:36:42;1.73;;;0.82;;
61206;SDS011;47070;49.212;8.084;2022-09-27T01:41:27;2.28;;;0.90;;
61206;SDS011;47070;49.212;8.084;2022-09-27T01:50:20;0.70;;;0.70;;
61206;SDS011;47070;49.212;8.084;2022-09-27T01:54:36;1.85;;;0.77;;
61206;SDS011;47070;49.212;8.084;2022-09-27T01:58:45;1.00;;;0.90;;
61206;SDS011;47070;49.212;8.084;2022-09-27T02:02:53;2.30;;;0.73;;
61206;SDS011;47070;49.212;8.084;2022-09-27T02:07:00;2.15;;;0.80;;
61206;SDS011;47070;49.212;8.084;2022-09-27T02:11:11;1.67;;;1.17;;
61206;SDS011;47070;49.212;8.084;2022-09-27T02:15:13;3.70;;;1.38;;
61206;SDS011;47070;49.212;8.084;2022-09-27T02:19:25;2.15;;;0.98;;
61206;SDS011;47070;49.212;8.084;2022-09-27T02:23:44;1.70;;;1.25;;
61206;SDS011;47070;49.212;8.084;2022-09-27T02:31:57;2.85;;;0.98;;
61206;SDS011;47070;49.212;8.084;2022-09-27T02:35:57;3.17;;;1.05;;
61206;SDS011;47070;49.212;8.084;2022-09-27T02:39:58;1.60;;;0.95;;
61206;SDS011;47070;49.212;8.084;2022-09-27T02:44:03;0.88;;;0.85;;
61206;SDS011;47070;49.212;8.084;2022-09-27T02:56:48;0.85;;;0.82;;
61206;SDS011;47070;49.212;8.084;2022-09-27T03:05:09;1.55;;;1.00;;
61206;SDS011;47070;49.212;8.084;2022-09-27T03:09:17;2.53;;;0.95;;
61206;SDS011;47070;49.212;8.084;2022-09-27T03:13:19;1.15;;;0.80;;
61206;SDS011;47070;49.212;8.084;2022-09-27T03:17:19;0.95;;;0.80;;
61206;SDS011;47070;49.212;8.084;2022-09-27T03:21:20;1.58;;;0.80;;
61206;SDS011;47070;49.212;8.084;2022-09-27T03:25:21;2.38;;;0.75;;
61206;SDS011;47070;49.212;8.084;2022-09-27T03:29:21;1.42;;;1.00;;
61206;SDS011;47070;49.212;8.084;2022-09-27T03:33:22;1.67;;;0.88;;
61206;SDS011;47070;49.212;8.084;2022-09-27T03:37:22;2.40;;;1.10;;
61206;SDS011;47070;49.212;8.084;2022-09-27T03:41:23;1.52;;;0.63;;
61206;SDS011;47070;49.212;8.084;2022-09-27T03:45:24;1.33;;;0.80;;
61206;SDS011;47070;49.212;8.084;2022-09-27T03:49:24;0.60;;;0.60;;
61206;SDS011;47070;49.212;8.084;2022-09-27T03:53:25;1.15;;;0.70;;
61206;SDS011;47070;49.212;8.084;2022-09-27T03:57:25;1.20;;;0.80;;
61206;SDS011;47070;49.212;8.084;2022-09-27T04:01:26;1.27;;;0.80;;
61206;SDS011;47070;49.212;8.084;2022-09-27T04:05:27;0.73;;;0.70;;
61206;SDS011;47070;49.212;8.084;2022-09-27T04:09:28;1.13;;;0.70;;
61206;SDS011;47070;49.212;8.084;2022-09-27T04:13:29;2.08;;;0.80;;
61206;SDS011;47070;49.212;8.084;2022-09-27T04:17:29;0.63;;;0.63;;
61206;SDS011;47070;49.212;8.084;2022-09-27T04:21:30;1.17;;;0.85;;
61206;SDS011;47070;49.212;8.084;2022-09-27T04:25:30;0.63;;;0.60;;
61206;SDS011;47070;49.212;8.084;2022-09-27T04:29:32;0.95;;;0.75;;
61206;SDS011;47070;49.212;8.084;2022-09-27T04:33:32;1.63;;;0.70;;
61206;SDS011;47070;49.212;8.084;2022-09-27T04:37:33;1.70;;;0.93;;
61206;SDS011;47070;49.212;8.084;2022-09-27T04:41:34;1.77;;;0.98;;
61206;SDS011;47070;49.212;8.084;2022-09-27T04:45:35;1.55;;;0.80;;
61206;SDS011;47070;49.212;8.084;2022-09-27T04:49:35;1.73;;;0.80;;
61206;SDS011;47070;49.212;8.084;2022-09-27T04:53:37;1.05;;;1.00;;
61206;SDS011;47070;49.212;8.084;2022-09-27T04:57:38;1.58;;;1.05;;
61206;SDS011;47070;49.212;8.084;2022-09-27T05:01:39;1.30;;;1.20;;
61206;SDS011;47070;49.212;8.084;2022-09-27T05:05:40;0.70;;;0.70;;
61206;SDS011;47070;49.212;8.084;2022-09-27T05:09:40;0.60;;;0.60;;
61206;SDS011;47070;49.212;8.084;2022-09-27T05:13:41;1.15;;;0.90;;
61206;SDS011;47070;49.212;8.084;2022-09-27T05:17:42;1.95;;;0.90;;
61206;SDS011;47070;49.212;8.084;2022-09-27T05:21:44;1.45;;;1.00;;
61206;SDS011;47070;49.212;8.084;2022-09-27T05:25:44;2.00;;;0.80;;
61206;SDS011;47070;49.212;8.084;2022-09-27T05:29:45;0.50;;;0.50;;
61206;SDS011;47070;49.212;8.084;2022-09-27T05:33:46;1.20;;;0.80;;
61206;SDS011;47070;49.212;8.084;2022-09-27T05:37:50;0.80;;;0.60;;
61206;SDS011;47070;49.212;8.084;2022-09-27T05:41:52;1.23;;;0.73;;
61206;SDS011;47070;49.212;8.084;2022-09-27T05:45:54;2.40;;;1.00;;
61206;SDS011;47070;49.212;8.084;2022-09-27T05:49:54;2.00;;;0.98;;
61206;SDS011;47070;49.212;8.084;2022-09-27T05:53:55;0.50;;;0.50;;
61206;SDS011;47070;49.212;8.084;2022-09-27T05:57:59;0.70;;;0.60;;
61206;SDS011;47070;49.212;8.084;2022-09-27T06:02:01;2.45;;;0.90;;
61206;SDS011;47070;49.212;8.084;2022-09-27T06:06:02;1.38;;;1.00;;
61206;SDS011;47070;49.212;8.084;2022-09-27T06:10:05;1.60;;;0.90;;
61206;SDS011;47070;49.212;8.084;2022-09-27T06:14:06;0.63;;;0.63;;
61206;SDS011;47070;49.212;8.084;2022-09-27T06:18:08;0.70;;;0.70;;
61206;SDS011;47070;49.212;8.084;2022-09-27T06:22:10;0.80;;;0.60;;
61206;SDS011;47070;49.212;8.084;2022-09-27T06:26:10;0.70;;;0.70;;
61206;SDS011;47070;49.212;8.084;2022-09-27T06:30:11;1.10;;;0.80;;
61206;SDS011;47070;49.212;8.084;2022-09-27T06:34:12;0.70;;;0.70;;
61206;SDS011;47070;49.212;8.084;2022-09-27T06:38:13;1.20;;;0.85;;
61206;SDS011;47070;49.212;8.084;2022-09-27T06:42:15;1.70;;;1.10;;
61206;SDS011;47070;49.212;8.084;2022-09-27T06:46:17;0.93;;;0.90;;
61206;SDS011;47070;49.212;8.084;2022-09-27T06:50:17;3.50;;;0.80;;
61206;SDS011;47070;49.212;8.084;2022-09-27T06:54:18;1.40;;;0.80;;
61206;SDS011;47070;49.212;8.084;2022-09-27T06:58:18;0.88;;;0.88;;
61206;SDS011;47070;49.212;8.084;2022-09-27T07:02:37;1.55;;;0.57;;
61206;SDS011;47070;49.212;8.084;2022-09-27T07:06:39;1.35;;;0.70;;
61206;SDS011;47070;49.212;8.084;2022-09-27T07:10:39;1.08;;;1.08;;
61206;SDS011;47070;49.212;8.084;2022-09-27T07:14:40;1.60;;;0.65;;
61206;SDS011;47070;49.212;8.084;2022-09-27T07:18:41;1.88;;;0.98;;
61206;SDS011;47070;49.212;8.084;2022-09-27T07:22:42;1.38;;;1.10;;
61206;SDS011;47070;49.212;8.084;2022-09-27T07:26:44;2.35;;;1.17;;
61206;SDS011;47070;49.212;8.084;2022-09-27T07:30:46;1.40;;;1.27;;
61206;SDS011;47070;49.212;8.084;2022-09-27T07:34:47;1.38;;;1.00;;
61206;SDS011;47070;49.212;8.084;2022-09-27T07:38:48;1.10;;;1.00;;
61206;SDS011;47070;49.212;8.084;2022-09-27T07:42:54;1.23;;;1.05;;
61206;SDS011;47070;49.212;8.084;2022-09-27T07:46:56;1.27;;;1.15;;
61206;SDS011;47070;49.212;8.084;2022-09-27T07:50:56;2.50;;;1.10;;
61206;SDS011;47070;49.212;8.084;2022-09-27T07:54:57;1.10;;;1.00;;
61206;SDS011;47070;49.212;8.084;2022-09-27T07:58:57;1.38;;;0.93;;
61206;SDS011;47070;49.212;8.084;2022-09-27T08:03:02;3.33;;;1.10;;
61206;SDS011;47070;49.212;8.084;2022-09-27T08:07:03;0.82;;;0.80;;
61206;SDS011;47070;49.212;8.084;2022-09-27T08:11:14;2.05;;;1.60;;
61206;SDS011;47070;49.212;8.084;2022-09-27T08:15:16;1.63;;;1.10;;
61206;SDS011;47070;49.212;8.084;2022-09-27T08:19:16;1.42;;;1.33;;
61206;SDS011;47070;49.212;8.084;2022-09-27T08:23:18;1.73;;;0.75;;
61206;SDS011;47070;49.212;8.084;2022-09-27T08:27:19;1.17;;;0.93;;
61206;SDS011;47070;49.212;8.084;2022-09-27T08:31:20;3.95;;;1.80;;
61206;SDS011;47070;49.212;8.084;2022-09-27T08:35:20;1.13;;;1.02;;
61206;SDS011;47070;49.212;8.084;2022-09-27T08:39:21;2.10;;;1.30;;
61206;SDS011;47070;49.212;8.084;2022-09-27T08:47:53;2.05;;;1.40;;
61206;SDS011;47070;49.212;8.084;2022-09-27T08:51:58;5.05;;;3.90;;
61206;SDS011;47070;49.212;8.084;2022-09-27T08:56:00;1.48;;;1.15;;
61206;SDS011;47070;49.212;8.084;2022-09-27T09:00:05;1.92;;;1.30;;
61206;SDS011;47070;49.212;8.084;2022-09-27T09:04:10;2.90;;;2.15;;
61206;SDS011;47070;49.212;8.084;2022-09-27T09:08:20;2.92;;;2.05;;
61206;SDS011;47070;49.212;8.084;2022-09-27T09:12:41;1.10;;;1.02;;
61206;SDS011;47070;49.212;8.084;2022-09-27T09:16:53;3.25;;;1.67;;
61206;SDS011;47070;49.212;8.084;2022-09-27T09:25:13;1.38;;;0.90;;
61206;SDS011;47070;49.212;8.084;2022-09-27T09:34:00;1.40;;;1.30;;
61206;SDS011;47070;49.212;8.084;2022-09-27T09:38:20;2.08;;;1.30;;
61206;SDS011;47070;49.212;8.084;2022-09-27T09:42:46;1.73;;;1.63;;
61206;SDS011;47070;49.212;8.084;2022-09-27T09:47:00;12.50;;;5.75;;
61206;SDS011;47070;49.212;8.084;2022-09-27T09:51:03;3.40;;;2.72;;
61206;SDS011;47070;49.212;8.084;2022-09-27T09:55:14;3.05;;;1.85;;
61206;SDS011;47070;49.212;8.084;2022-09-27T10:03:25;4.32;;;3.92;;
61206;SDS011;47070;49.212;8.084;2022-09-27T10:07:25;1.80;;;1.48;;
61206;SDS011;47070;49.212;8.084;2022-09-27T10:11:38;6.43;;;2.67;;
61206;SDS011;47070;49.212;8.084;2022-09-27T10:15:40;2.13;;;1.30;;
61206;SDS011;47070;49.212;8.084;2022-09-27T10:19:41;1.15;;;0.98;;
61206;SDS011;47070;49.212;8.084;2022-09-27T10:24:02;0.88;;;0.80;;
61206;SDS011;47070;49.212;8.084;2022-09-27T10:28:03;0.75;;;0.70;;
61206;SDS011;47070;49.212;8.084;2022-09-27T10:32:11;1.02;;;0.82;;
61206;SDS011;47070;49.212;8.084;2022-09-27T10:36:25;2.13;;;1.38;;
61206;SDS011;47070;49.212;8.084;2022-09-27T10:40:31;2.83;;;1.20;;
61206;SDS011;47070;49.212;8.084;2022-09-27T10:44:32;1.75;;;1.65;;
61206;SDS011;47070;49.212;8.084;2022-09-27T10:48:33;1.42;;;1.30;;
61206;SDS011;47070;49.212;8.084;2022-09-27T10:52:34;0.98;;;0.88;;
61206;SDS011;47070;49.212;8.084;2022-09-27T10:56:35;0.73;;;0.70;;
61206;SDS011;47070;49.212;8.084;2022-09-27T11:00:35;1.38;;;0.90;;
61206;SDS011;47070;49.212;8.084;2022-09-27T11:04:37;2.60;;;1.70;;
61206;SDS011;47070;49.212;8.084;2022-09-27T11:08:37;2.67;;;1.90;;
61206;SDS011;47070;49.212;8.084;2022-09-27T11:12:39;2.92;;;1.58;;
61206;SDS011;47070;49.212;8.084;2022-09-27T11:16:46;1.40;;;0.90;;
61206;SDS011;47070;49.212;8.084;2022-09-27T11:30:01;2.38;;;1.15;;
61206;SDS011;47070;49.212;8.084;2022-09-27T11:38:38;1.98;;;0.68;;
61206;SDS011;47070;49.212;8.084;2022-09-27T12:00:00;1.00;;;0.90;;
61206;SDS011;47070;49.212;8.084;2022-09-27T12:09:09;0.60;;;0.60;;
61206;SDS011;47070;49.212;8.084;2022-09-27T12:13:14;0.75;;;0.75;;
61206;SDS011;47070;49.212;8.084;2022-09-27T12:17:34;0.70;;;0.70;;
61206;SDS011;47070;49.212;8.084;2022-09-27T12:21:38;0.63;;;0.63;;
61206;SDS011;47070;49.212;8.084;2022-09-27T12:25:40;2.10;;;0.80;;
61206;SDS011;47070;49.212;8.084;2022-09-27T12:29:41;0.60;;;0.60;;
61206;SDS011;47070;49.212;8.084;2022-09-27T12:33:48;1.17;;;0.63;;
61206;SDS011;47070;49.212;8.084;2022-09-27T12:38:12;0.57;;;0.52;;
61206;SDS011;47070;49.212;8.084;2022-09-27T12:42:23;0.60;;;0.60;;
61206;SDS011;47070;49.212;8.084;2022-09-27T12:46:56;0.70;;;0.55;;
61206;SDS011;47070;49.212;8.084;2022-09-27T12:51:13;1.35;;;1.08;;
61206;SDS011;47070;49.212;8.084;2022-09-27T12:55:19;0.68;;;0.68;;
61206;SDS011;47070;49.212;8.084;2022-09-27T13:16:15;1.10;;;0.80;;
61206;SDS011;47070;49.212;8.084;2022-09-27T13:37:26;1.33;;;0.70;;
61206;SDS011;47070;49.212;8.084;2022-09-27T13:45:58;0.90;;;0.90;;
61206;SDS011;47070;49.212;8.084;2022-09-27T13:50:16;1.73;;;0.80;;
61206;SDS011;47070;49.212;8.084;2022-09-27T13:54:50;1.35;;;0.50;;
61206;SDS011;47070;49.212;8.084;2022-09-27T13:59:00;5.45;;;2.75;;
61206;SDS011;47070;49.212;8.084;2022-09-27T14:07:34;1.58;;;0.70;;
61206;SDS011;47070;49.212;8.084;2022-09-27T14:11:39;0.80;;;0.70;;
61206;SDS011;47070;49.212;8.084;2022-09-27T14:15:42;1.67;;;1.10;;
61206;SDS011;47070;49.212;8.084;2022-09-27T14:19:43;0.80;;;0.80;;
61206;SDS011;47070;49.212;8.084;2022-09-27T14:23:44;1.10;;;1.00;;
61206;SDS011;47070;49.212;8.084;2022-09-27T14:27:45;0.52;;;0.52;;
61206;SDS011;47070;49.212;8.084;2022-09-27T14:31:46;1.23;;;0.80;;
61206;SDS011;47070;49.212;8.084;2022-09-27T14:35:48;1.05;;;0.75;;
61206;SDS011;47070;49.212;8.084;2022-09-27T14:40:17;0.80;;;0.60;;
61206;SDS011;47070;49.212;8.084;2022-09-27T14:44:19;0.55;;;0.50;;
61206;SDS011;47070;49.212;8.084;2022-09-27T14:48:22;0.60;;;0.52;;
61206;SDS011;47070;49.212;8.084;2022-09-27T14:52:31;0.93;;;0.85;;
61206;SDS011;47070;49.212;8.084;2022-09-27T14:56:34;0.70;;;0.70;;
61206;SDS011;47070;49.212;8.084;2022-09-27T15:00:37;1.88;;;0.68;;
61206;SDS011;47070;49.212;8.084;2022-09-27T15:04:41;0.82;;;0.73;;
61206;SDS011;47070;49.212;8.084;2022-09-27T15:08:45;1.63;;;0.70;;
61206;SDS011;47070;49.212;8.084;2022-09-27T15:12:49;3.55;;;1.30;;
61206;SDS011;47070;49.212;8.084;2022-09-27T15:16:53;2.50;;;0.68;;
61206;SDS011;47070;49.212;8.084;2022-09-27T15:20:54;0.65;;;0.60;;
61206;SDS011;47070;49.212;8.084;2022-09-27T15:25:02;0.70;;;0.70;;
61206;SDS011;47070;49.212;8.084;2022-09-27T15:29:18;2.03;;;1.13;;
61206;SDS011;47070;49.212;8.084;2022-09-27T15:37:35;0.60;;;0.60;;
61206;SDS011;47070;49.212;8.084;2022-09-27T15:54:29;1.00;;;0.75;;
61206;SDS011;47070;49.212;8.084;2022-09-27T15:58:33;0.68;;;0.63;;
61206;SDS011;47070;49.212;8.084;2022-09-27T16:02:34;1.05;;;0.73;;
61206;SDS011;47070;49.212;8.084;2022-09-27T16:06:36;1.00;;;0.90;;
61206;SDS011;47070;49.212;8.084;2022-09-27T16:10:38;0.60;;;0.60;;
61206;SDS011;47070;49.212;8.084;2022-09-27T16:14:40;2.70;;;0.85;;
61206;SDS011;47070;49.212;8.084;2022-09-27T16:18:42;0.65;;;0.60;;
61206;SDS011;47070;49.212;8.084;2022-09-27T16:22:43;2.15;;;1.27;;
61206;SDS011;47070;49.212;8.084;2022-09-27T16:26:44;2.08;;;1.38;;
61206;SDS011;47070;49.212;8.084;2022-09-27T16:30:44;2.65;;;1.33;;
61206;SDS011;47070;49.212;8.084;2022-09-27T16:34:46;3.42;;;1.70;;
61206;SDS011;47070;49.212;8.084;2022-09-27T16:38:47;1.10;;;1.00;;
61206;SDS011;47070;49.212;8.084;2022-09-27T16:42:49;3.17;;;1.63;;
61206;SDS011;47070;49.212;8.084;2022-09-27T16:46:49;1.92;;;1.33;;
61206;SDS011;47070;49.212;8.084;2022-09-27T16:50:50;1.73;;;1.08;;
61206;SDS011;47070;49.212;8.084;2022-09-27T16:55:09;4.93;;;3.03;;
61206;SDS011;47070;49.212;8.084;2022-09-27T16:59:10;2.88;;;2.67;;
61206;SDS011;47070;49.212;8.084;2022-09-27T17:03:11;4.15;;;2.55;;
61206;SDS011;47070;49.212;8.084;2022-09-27T17:07:11;1.95;;;1.23;;
61206;SDS011;47070;49.212;8.084;2022-09-27T17:11:12;9.07;;;5.40;;
61206;SDS011;47070;49.212;8.084;2022-09-27T17:15:15;4.65;;;2.60;;
61206;SDS011;47070;49.212;8.084;2022-09-27T17:19:16;7.68;;;3.72;;
61206;SDS011;47070;49.212;8.084;2022-09-27T17:23:17;8.82;;;4.53;;
61206;SDS011;47070;49.212;8.084;2022-09-27T17:27:18;8.30;;;4.20;;
61206;SDS011;47070;49.212;8.084;2022-09-27T17:31:18;5.88;;;4.03;;
61206;SDS011;47070;49.212;8.084;2022-09-27T17:35:19;8.00;;;4.15;;
61206;SDS011;47070;49.212;8.084;2022-09-27T17:39:20;5.93;;;3.90;;
61206;SDS011;47070;49.212;8.084;2022-09-27T17:43:21;10.38;;;4.85;;
61206;SDS011;47070;49.212;8.084;2022-09-27T17:47:22;3.90;;;3.35;;
61206;SDS011;47070;49.212;8.084;2022-09-27T17:51:41;2.85;;;1.52;;
61206;SDS011;47070;49.212;8.084;2022-09-27T17:55:44;1.63;;;1.52;;
61206;SDS011;47070;49.212;8.084;2022-09-27T17:59:45;2.35;;;1.45;;
61206;SDS011;47070;49.212;8.084;2022-09-27T18:03:46;2.37;;;2.13;;
61206;SDS011;47070;49.212;8.084;2022-09-27T18:07:47;2.95;;;1.75;;
61206;SDS011;47070;49.212;8.084;2022-09-27T18:11:48;5.73;;;4.00;;
61206;SDS011;47070;49.212;8.084;2022-09-27T18:15:55;3.17;;;2.88;;
61206;SDS011;47070;49.212;8.084;2022-09-27T18:19:57;2.73;;;1.60;;
61206;SDS011;47070;49.212;8.084;2022-09-27T18:23:59;6.37;;;3.57;;
61206;SDS011;47070;49.212;8.084;2022-09-27T18:28:03;2.13;;;1.88;;
61206;SDS011;47070;49.212;8.084;2022-09-27T18:32:03;2.47;;;2.08;;
61206;SDS011;47070;49.212;8.084;2022-09-27T18:40:06;3.43;;;2.00;;
61206;SDS011;47070;49.212;8.084;2022-09-27T18:44:06;5.40;;;3.95;;
61206;SDS011;47070;49.212;8.084;2022-09-27T18:48:09;8.25;;;4.20;;
61206;SDS011;47070;49.212;8.084;2022-09-27T18:52:10;7.22;;;3.80;;
61206;SDS011;47070;49.212;8.084;2022-09-27T18:56:14;3.88;;;3.05;;
61206;SDS011;47070;49.212;8.084;2022-09-27T19:00:16;4.35;;;2.17;;
61206;SDS011;47070;49.212;8.084;2022-09-27T19:04:18;2.33;;;1.50;;
61206;SDS011;47070;49.212;8.084;2022-09-27T19:08:24;2.05;;;1.55;;
61206;SDS011;47070;49.212;8.084;2022-09-27T19:12:25;2.35;;;2.05;;
61206;SDS011;47070;49.212;8.084;2022-09-27T19:16:26;1.67;;;1.55;;
61206;SDS011;47070;49.212;8.084;2022-09-27T19:20:27;2.50;;;1.58;;
61206;SDS011;47070;49.212;8.084;2022-09-27T19:24:28;2.15;;;1.13;;
61206;SDS011;47070;49.212;8.084;2022-09-27T19:28:35;2.50;;;1.45;;
61206;SDS011;47070;49.212;8.084;2022-09-27T19:32:38;3.15;;;1.40;;
61206;SDS011;47070;49.212;8.084;2022-09-27T19:36:39;2.53;;;1.60;;
61206;SDS011;47070;49.212;8.084;2022-09-27T19:40:39;3.92;;;1.50;;
61206;SDS011;47070;49.212;8.084;2022-09-27T19:44:40;1.02;;;1.00;;
61206;SDS011;47070;49.212;8.084;2022-09-27T19:48:41;1.20;;;1.17;;
61206;SDS011;47070;49.212;8.084;2022-09-27T19:52:43;1.40;;;1.00;;
61206;SDS011;47070;49.212;8.084;2022-09-27T19:56:45;1.05;;;0.95;;
61206;SDS011;47070;49.212;8.084;2022-09-27T20:00:55;1.27;;;1.02;;
61206;SDS011;47070;49.212;8.084;2022-09-27T20:04:56;4.03;;;1.50;;
61206;SDS011;47070;49.212;8.084;2022-09-27T20:08:57;1.30;;;1.10;;
61206;SDS011;47070;49.212;8.084;2022-09-27T20:12:57;2.75;;;1.30;;
61206;SDS011;47070;49.212;8.084;2022-09-27T20:16:58;0.95;;;0.95;;
61206;SDS011;47070;49.212;8.084;2022-09-27T20:20:59;1.88;;;1.30;;
61206;SDS011;47070;49.212;8.084;2022-09-27T20:25:01;3.15;;;1.42;;
61206;SDS011;47070;49.212;8.084;2022-09-27T20:29:02;2.33;;;1.03;;
61206;SDS011;47070;49.212;8.084;2022-09-27T20:33:04;1.17;;;1.05;;
61206;SDS011;47070;49.212;8.084;2022-09-27T20:37:23;1.27;;;0.88;;
61206;SDS011;47070;49.212;8.084;2022-09-27T20:41:24;2.70;;;1.10;;
61206;SDS011;47070;49.212;8.084;2022-09-27T20:45:24;1.20;;;1.00;;
61206;SDS011;47070;49.212;8.084;2022-09-27T20:49:25;1.17;;;1.00;;
61206;SDS011;47070;49.212;8.084;2022-09-27T20:53:26;1.52;;;1.10;;
61206;SDS011;47070;49.212;8.084;2022-09-27T20:57:27;1.60;;;1.20;;
61206;SDS011;47070;49.212;8.084;2022-09-27T21:01:28;4.40;;;1.20;;
61206;SDS011;47070;49.212;8.084;2022-09-27T21:05:30;3.17;;;1.20;;
61206;SDS011;47070;49.212;8.084;2022-09-27T21:09:30;2.60;;;1.20;;
61206;SDS011;47070;49.212;8.084;2022-09-27T21:13:31;1.20;;;1.00;;
61206;SDS011;47070;49.212;8.084;2022-09-27T21:17:31;1.23;;;0.93;;
61206;SDS011;47070;49.212;8.084;2022-09-27T21:21:32;2.53;;;1.25;;
61206;SDS011;47070;49.212;8.084;2022-09-27T21:25:32;1.83;;;0.80;;
61206;SDS011;47070;49.212;8.084;2022-09-27T21:29:33;1.55;;;0.85;;
61206;SDS011;47070;49.212;8.084;2022-09-27T21:33:33;1.25;;;0.80;;
61206;SDS011;47070;49.212;8.084;2022-09-27T21:37:34;2.00;;;0.90;;
61206;SDS011;47070;49.212;8.084;2022-09-27T21:41:35;1.27;;;0.75;;
61206;SDS011;47070;49.212;8.084;2022-09-27T21:45:36;2.38;;;1.00;;
61206;SDS011;47070;49.212;8.084;2022-09-27T21:49:36;1.60;;;1.00;;
61206;SDS011;47070;49.212;8.084;2022-09-27T21:53:38;1.10;;;1.00;;
61206;SDS011;47070;49.212;8.084;2022-09-27T21:57:40;1.38;;;1.05;;
61206;SDS011;47070;49.212;8.084;2022-09-27T22:01:41;1.15;;;1.05;;
61206;SDS011;47070;49.212;8.084;2022-09-27T22:05:46;1.20;;;1.10;;
61206;SDS011;47070;49.212;8.084;2022-09-27T22:09:47;1.20;;;1.10;;
61206;SDS011;47070;49.212;8.084;2022-09-27T22:13:48;1.40;;;1.30;;
61206;SDS011;47070;49.212;8.084;2022-09-27T22:17:49;4.70;;;1.17;;
61206;SDS011;47070;49.212;8.084;2022-09-27T22:21:50;0.90;;;0.90;;
61206;SDS011;47070;49.212;8.084;2022-09-27T22:25:50;4.00;;;1.83;;
61206;SDS011;47070;49.212;8.084;2022-09-27T22:29:51;0.70;;;0.70;;
61206;SDS011;47070;49.212;8.084;2022-09-27T22:33:52;0.82;;;0.73;;
61206;SDS011;47070;49.212;8.084;2022-09-27T22:37:58;1.27;;;1.00;;
61206;SDS011;47070;49.212;8.084;2022-09-27T22:41:59;2.50;;;0.93;;
61206;SDS011;47070;49.212;8.084;2022-09-27T22:46:00;1.10;;;0.80;;
61206;SDS011;47070;49.212;8.084;2022-09-27T22:50:00;1.13;;;1.02;;
61206;SDS011;47070;49.212;8.084;2022-09-27T22:54:01;1.05;;;0.98;;
61206;SDS011;47070;49.212;8.084;2022-09-27T22:58:01;1.92;;;1.02;;
61206;SDS011;47070;49.212;8.084;2022-09-27T23:02:02;1.17;;;1.08;;
61206;SDS011;47070;49.212;8.084;2022-09-27T23:06:03;1.00;;;0.90;;
61206;SDS011;47070;49.212;8.084;2022-09-27T23:10:04;1.42;;;0.90;;
61206;SDS011;47070;49.212;8.084;2022-09-27T23:14:06;0.80;;;0.80;;
61206;SDS011;47070;49.212;8.084;2022-09-27T23:18:09;3.65;;;1.20;;
61206;SDS011;47070;49.212;8.084;2022-09-27T23:22:09;1.48;;;1.10;;
61206;SDS011;47070;49.212;8.084;2022-09-27T23:26:13;1.02;;;0.93;;
61206;SDS011;47070;49.212;8.084;2022-09-27T23:30:16;1.42;;;0.73;;
61206;SDS011;47070;49.212;8.084;2022-09-27T23:34:21;1.55;;;0.98;;
61206;SDS011;47070;49.212;8.084;2022-09-27T23:38:22;1.42;;;0.70;;
61206;SDS011;47070;49.212;8.084;2022-09-27T23:42:23;0.80;;;0.80;;
61206;SDS011;47070;49.212;8.084;2022-09-27T23:46:23;0.80;;;0.80;;
61206;SDS011;47070;49.212;8.084;2022-09-27T23:50:24;1.17;;;0.88;;
61206;SDS011;47070;49.212;8.084;2022-09-27T23:54:25;1.45;;;1.10;;
61206;SDS011;47070;49.212;8.084;2022-09-27T23:58:36;1.20;;;0.75;;
